Terminal Aerodrome Forecast
Issued by NWS

Current Version | Previous Version | Text Only | Print | Product List | Glossary On
Versions: 1 2 3 4 5 6 7 8 9 10 11 12 13 14 15 16 17 18 19 20 21 22 23 24 25 26 27 28 29 30 31 32
000
FTAK31 PAFA 201440 AAB
TAFAOM
TAF AMD
PAOM 201440Z 2015/2112 30003KT 3SM -SN BR BKN025
     FM201900 04008KT 2SM -SHSN BR SCT015 OVC025
     FM210400 04012KT 5SM -SHSN BR BKN015 OVC040=

USA.gov is the U.S. government's official web portal to all federal, state and local government web resources and services.